<?xml version="1.0" encoding="UTF-8" standalone="no" ?>
<gpx xmlns="http://www.topografix.com/GPX/1/1" xmlns:xsi="http://www.w3.org/2001/XMLSchema-instance" xsi:schemaLocation="http://www.topografix.com/GPX/1/1 http://www.topografix.com/GPX/1/1/gpx.xsd" version="1.1" creator="VisuGPX - https://www.visugpx.com">
  <metadata>
    <name>Turquie_100points</name>
  </metadata>
  <trk>
    <name><![CDATA[Tour d'Europe: étape 554]]></name>
    <extensions>
      <line xmlns="http://www.topografix.com/GPX/gpx_style/0/2">
        <color>FF0000</color>
        <width>4</width>
      </line>
    </extensions>
    <trkseg>
      <trkpt lat="37.4344" lon="34.87627">
        <ele>843.086358</ele>
        <time>2022-01-03T05:59:56.233Z</time>
      </trkpt>
      <trkpt lat="37.43312" lon="34.87573">
        <ele>838.539041</ele>
        <time>2022-01-03T06:03:40.841Z</time>
      </trkpt>
      <trkpt lat="37.43136" lon="34.87491">
        <ele>823.625392</ele>
        <time>2022-01-03T06:04:58.851Z</time>
      </trkpt>
      <trkpt lat="37.4289" lon="34.87464">
        <ele>828.454896</ele>
        <time>2022-01-03T06:06:09.832Z</time>
      </trkpt>
      <trkpt lat="37.42665" lon="34.87429">
        <ele>828.211949</ele>
        <time>2022-01-03T06:07:17.867Z</time>
      </trkpt>
      <trkpt lat="37.42483" lon="34.873">
        <ele>823.501365</ele>
        <time>2022-01-03T06:08:23.851Z</time>
      </trkpt>
      <trkpt lat="37.4225" lon="34.87212">
        <ele>831.30035</ele>
        <time>2022-01-03T06:09:22.846Z</time>
      </trkpt>
      <trkpt lat="37.42017" lon="34.87206">
        <ele>835.753535</ele>
        <time>2022-01-03T06:10:23.830Z</time>
      </trkpt>
      <trkpt lat="37.41838" lon="34.87362">
        <ele>824.224829</ele>
        <time>2022-01-03T06:11:13.845Z</time>
      </trkpt>
      <trkpt lat="37.41667" lon="34.87562">
        <ele>821.202371</ele>
        <time>2022-01-03T06:12:29.841Z</time>
      </trkpt>
      <trkpt lat="37.4139" lon="34.8761">
        <ele>813.922168</ele>
        <time>2022-01-03T06:13:20.847Z</time>
      </trkpt>
      <trkpt lat="37.41192" lon="34.87704">
        <ele>820.444525</ele>
        <time>2022-01-03T06:14:44.835Z</time>
      </trkpt>
      <trkpt lat="37.40994" lon="34.87824">
        <ele>827.410656</ele>
        <time>2022-01-03T06:16:35.858Z</time>
      </trkpt>
      <trkpt lat="37.40787" lon="34.87922">
        <ele>833.255148</ele>
        <time>2022-01-03T06:17:55.844Z</time>
      </trkpt>
      <trkpt lat="37.40604" lon="34.87871">
        <ele>836.70666</ele>
        <time>2022-01-03T06:19:26.841Z</time>
      </trkpt>
      <trkpt lat="37.40484" lon="34.87641">
        <ele>843.409688</ele>
        <time>2022-01-03T06:21:10.864Z</time>
      </trkpt>
      <trkpt lat="37.40446" lon="34.87377">
        <ele>849.222003</ele>
        <time>2022-01-03T06:22:43.858Z</time>
      </trkpt>
      <trkpt lat="37.40382" lon="34.87116">
        <ele>847.245116</ele>
        <time>2022-01-03T06:23:53.900Z</time>
      </trkpt>
      <trkpt lat="37.40421" lon="34.8683">
        <ele>852.228971</ele>
        <time>2022-01-03T06:25:04.863Z</time>
      </trkpt>
      <trkpt lat="37.4043" lon="34.86558">
        <ele>853.854326</ele>
        <time>2022-01-03T06:26:35.854Z</time>
      </trkpt>
      <trkpt lat="37.40315" lon="34.8632">
        <ele>852.100635</ele>
        <time>2022-01-03T06:27:55.863Z</time>
      </trkpt>
      <trkpt lat="37.40163" lon="34.86108">
        <ele>855.587339</ele>
        <time>2022-01-03T06:29:13.863Z</time>
      </trkpt>
      <trkpt lat="37.39993" lon="34.85926">
        <ele>863.597364</ele>
        <time>2022-01-03T06:30:57.851Z</time>
      </trkpt>
      <trkpt lat="37.39783" lon="34.85897">
        <ele>867.754506</ele>
        <time>2022-01-03T06:32:25.871Z</time>
      </trkpt>
      <trkpt lat="37.39606" lon="34.85729">
        <ele>873.406645</ele>
        <time>2022-01-03T06:33:57.861Z</time>
      </trkpt>
      <trkpt lat="37.39512" lon="34.85469">
        <ele>876.624813</ele>
        <time>2022-01-03T06:35:26.843Z</time>
      </trkpt>
      <trkpt lat="37.39458" lon="34.85217">
        <ele>884.560992</ele>
        <time>2022-01-03T06:37:02.859Z</time>
      </trkpt>
      <trkpt lat="37.39253" lon="34.85079">
        <ele>885.032171</ele>
        <time>2022-01-03T06:38:34.839Z</time>
      </trkpt>
      <trkpt lat="37.3904" lon="34.85031">
        <ele>895.119874</ele>
        <time>2022-01-03T06:40:34.854Z</time>
      </trkpt>
      <trkpt lat="37.38832" lon="34.85043">
        <ele>899.506759</ele>
        <time>2022-01-03T06:42:19.851Z</time>
      </trkpt>
      <trkpt lat="37.38644" lon="34.84902">
        <ele>911.129388</ele>
        <time>2022-01-03T06:44:09.851Z</time>
      </trkpt>
      <trkpt lat="37.3847" lon="34.84734">
        <ele>923.508518</ele>
        <time>2022-01-03T06:46:22.851Z</time>
      </trkpt>
      <trkpt lat="37.38299" lon="34.84592">
        <ele>933.080329</ele>
        <time>2022-01-03T06:48:04.862Z</time>
      </trkpt>
      <trkpt lat="37.38105" lon="34.84419">
        <ele>934.842788</ele>
        <time>2022-01-03T06:49:31.876Z</time>
      </trkpt>
      <trkpt lat="37.37873" lon="34.84289">
        <ele>930.040663</ele>
        <time>2022-01-03T06:50:40.865Z</time>
      </trkpt>
      <trkpt lat="37.37672" lon="34.84193">
        <ele>941.974918</ele>
        <time>2022-01-03T06:52:24.859Z</time>
      </trkpt>
      <trkpt lat="37.37572" lon="34.83964">
        <ele>955.601625</ele>
        <time>2022-01-03T06:54:22.867Z</time>
      </trkpt>
      <trkpt lat="37.37454" lon="34.83729">
        <ele>959.724238</ele>
        <time>2022-01-03T06:56:19.875Z</time>
      </trkpt>
      <trkpt lat="37.37287" lon="34.8356">
        <ele>968.014519</ele>
        <time>2022-01-03T06:57:59.859Z</time>
      </trkpt>
      <trkpt lat="37.37155" lon="34.83344">
        <ele>981.295193</ele>
        <time>2022-01-03T06:59:55.843Z</time>
      </trkpt>
      <trkpt lat="37.36992" lon="34.83205">
        <ele>993.494555</ele>
        <time>2022-01-03T07:01:48.856Z</time>
      </trkpt>
      <trkpt lat="37.36891" lon="34.82993">
        <ele>999.873659</ele>
        <time>2022-01-03T07:03:44.887Z</time>
      </trkpt>
      <trkpt lat="37.36813" lon="34.82747">
        <ele>1008.830901</ele>
        <time>2022-01-03T07:05:52.862Z</time>
      </trkpt>
      <trkpt lat="37.36637" lon="34.8261">
        <ele>1016.510543</ele>
        <time>2022-01-03T07:15:57.854Z</time>
      </trkpt>
      <trkpt lat="37.3647" lon="34.825">
        <ele>1043.279674</ele>
        <time>2022-01-03T07:18:29.863Z</time>
      </trkpt>
      <trkpt lat="37.363" lon="34.8236">
        <ele>1061.069519</ele>
        <time>2022-01-03T07:21:03.863Z</time>
      </trkpt>
      <trkpt lat="37.36195" lon="34.82409">
        <ele>1073.206192</ele>
        <time>2022-01-03T07:23:47.860Z</time>
      </trkpt>
      <trkpt lat="37.36006" lon="34.82468">
        <ele>1085.427052</ele>
        <time>2022-01-03T07:26:19.877Z</time>
      </trkpt>
      <trkpt lat="37.35802" lon="34.82447">
        <ele>1096.078504</ele>
        <time>2022-01-03T07:28:53.870Z</time>
      </trkpt>
      <trkpt lat="37.35597" lon="34.82397">
        <ele>1106.76043</ele>
        <time>2022-01-03T07:31:11.877Z</time>
      </trkpt>
      <trkpt lat="37.35413" lon="34.82296">
        <ele>1117.287848</ele>
        <time>2022-01-03T07:33:20.866Z</time>
      </trkpt>
      <trkpt lat="37.3528" lon="34.82083">
        <ele>1137.317227</ele>
        <time>2022-01-03T07:35:32.863Z</time>
      </trkpt>
      <trkpt lat="37.35139" lon="34.81891">
        <ele>1146.196662</ele>
        <time>2022-01-03T07:38:04.862Z</time>
      </trkpt>
      <trkpt lat="37.3498" lon="34.81731">
        <ele>1165.296228</ele>
        <time>2022-01-03T07:40:44.870Z</time>
      </trkpt>
      <trkpt lat="37.34859" lon="34.81527">
        <ele>1190.89652</ele>
        <time>2022-01-03T07:43:48.880Z</time>
      </trkpt>
      <trkpt lat="37.3478" lon="34.8133">
        <ele>1205.245795</ele>
        <time>2022-01-03T07:46:42.884Z</time>
      </trkpt>
      <trkpt lat="37.34678" lon="34.81153">
        <ele>1227.779203</ele>
        <time>2022-01-03T07:49:55.900Z</time>
      </trkpt>
      <trkpt lat="37.34492" lon="34.81052">
        <ele>1240.859481</ele>
        <time>2022-01-03T07:52:46.877Z</time>
      </trkpt>
      <trkpt lat="37.34399" lon="34.80843">
        <ele>1261.477274</ele>
        <time>2022-01-03T07:55:30.896Z</time>
      </trkpt>
      <trkpt lat="37.34321" lon="34.80612">
        <ele>1270.46663</ele>
        <time>2022-01-03T07:57:58.874Z</time>
      </trkpt>
      <trkpt lat="37.3415" lon="34.80453">
        <ele>1282.500013</ele>
        <time>2022-01-03T08:00:03.879Z</time>
      </trkpt>
      <trkpt lat="37.33958" lon="34.80351">
        <ele>1289.545663</ele>
        <time>2022-01-03T08:01:49.872Z</time>
      </trkpt>
      <trkpt lat="37.33788" lon="34.80187">
        <ele>1301.073751</ele>
        <time>2022-01-03T08:03:48.871Z</time>
      </trkpt>
      <trkpt lat="37.33597" lon="34.80052">
        <ele>1309.168456</ele>
        <time>2022-01-03T08:05:30.895Z</time>
      </trkpt>
      <trkpt lat="37.33413" lon="34.79935">
        <ele>1318.100648</ele>
        <time>2022-01-03T08:07:09.885Z</time>
      </trkpt>
      <trkpt lat="37.33328" lon="34.79711">
        <ele>1319.96452</ele>
        <time>2022-01-03T08:09:12.914Z</time>
      </trkpt>
      <trkpt lat="37.33203" lon="34.79499">
        <ele>1321.333074</ele>
        <time>2022-01-03T08:11:26.879Z</time>
      </trkpt>
      <trkpt lat="37.33025" lon="34.79398">
        <ele>1329.323449</ele>
        <time>2022-01-03T08:26:19.872Z</time>
      </trkpt>
      <trkpt lat="37.32823" lon="34.79286">
        <ele>1328.009496</ele>
        <time>2022-01-03T08:27:55.896Z</time>
      </trkpt>
      <trkpt lat="37.32696" lon="34.7903">
        <ele>1319.551372</ele>
        <time>2022-01-03T08:34:10.901Z</time>
      </trkpt>
      <trkpt lat="37.32628" lon="34.78782">
        <ele>1327.772133</ele>
        <time>2022-01-03T08:35:52.870Z</time>
      </trkpt>
      <trkpt lat="37.32491" lon="34.78577">
        <ele>1341.732973</ele>
        <time>2022-01-03T08:38:03.892Z</time>
      </trkpt>
      <trkpt lat="37.3232" lon="34.78395">
        <ele>1345.037093</ele>
        <time>2022-01-03T08:39:29.890Z</time>
      </trkpt>
      <trkpt lat="37.3218" lon="34.78169">
        <ele>1339.714489</ele>
        <time>2022-01-03T08:40:31.871Z</time>
      </trkpt>
      <trkpt lat="37.32052" lon="34.77866">
        <ele>1332.558774</ele>
        <time>2022-01-03T08:41:25.895Z</time>
      </trkpt>
      <trkpt lat="37.31894" lon="34.77541">
        <ele>1319.595992</ele>
        <time>2022-01-03T08:42:02.892Z</time>
      </trkpt>
      <trkpt lat="37.31742" lon="34.77352">
        <ele>1306.191348</ele>
        <time>2022-01-03T08:42:25.904Z</time>
      </trkpt>
      <trkpt lat="37.31573" lon="34.7715">
        <ele>1292.110213</ele>
        <time>2022-01-03T08:42:48.920Z</time>
      </trkpt>
      <trkpt lat="37.31306" lon="34.77">
        <ele>1284.345826</ele>
        <time>2022-01-03T08:43:26.886Z</time>
      </trkpt>
      <trkpt lat="37.3114" lon="34.76719">
        <ele>1281.234561</ele>
        <time>2022-01-03T08:44:08.889Z</time>
      </trkpt>
      <trkpt lat="37.31112" lon="34.76442">
        <ele>1288.093984</ele>
        <time>2022-01-03T08:45:31.894Z</time>
      </trkpt>
      <trkpt lat="37.30932" lon="34.76288">
        <ele>1295.242849</ele>
        <time>2022-01-03T08:47:22.889Z</time>
      </trkpt>
      <trkpt lat="37.30771" lon="34.76122">
        <ele>1308.771038</ele>
        <time>2022-01-03T08:49:16.890Z</time>
      </trkpt>
      <trkpt lat="37.30562" lon="34.76062">
        <ele>1322.365524</ele>
        <time>2022-01-03T08:51:59.905Z</time>
      </trkpt>
      <trkpt lat="37.30384" lon="34.75923">
        <ele>1335.345439</ele>
        <time>2022-01-03T08:54:46.894Z</time>
      </trkpt>
      <trkpt lat="37.30224" lon="34.7575">
        <ele>1339.34241</ele>
        <time>2022-01-03T08:56:24.897Z</time>
      </trkpt>
      <trkpt lat="37.30127" lon="34.7549">
        <ele>1338.650001</ele>
        <time>2022-01-03T08:57:30.895Z</time>
      </trkpt>
      <trkpt lat="37.29961" lon="34.75269">
        <ele>1337.314245</ele>
        <time>2022-01-03T08:58:36.891Z</time>
      </trkpt>
      <trkpt lat="37.29883" lon="34.75014">
        <ele>1343.906131</ele>
        <time>2022-01-03T08:59:42.892Z</time>
      </trkpt>
      <trkpt lat="37.29697" lon="34.74846">
        <ele>1349.568659</ele>
        <time>2022-01-03T09:01:01.928Z</time>
      </trkpt>
      <trkpt lat="37.29552" lon="34.7463">
        <ele>1353.75039</ele>
        <time>2022-01-03T09:02:22.896Z</time>
      </trkpt>
      <trkpt lat="37.29471" lon="34.74386">
        <ele>1352.280584</ele>
        <time>2022-01-03T09:03:34.881Z</time>
      </trkpt>
      <trkpt lat="37.29283" lon="34.74242">
        <ele>1354.70506</ele>
        <time>2022-01-03T09:04:43.899Z</time>
      </trkpt>
      <trkpt lat="37.29093" lon="34.74107">
        <ele>1365.776705</ele>
        <time>2022-01-03T09:06:49.940Z</time>
      </trkpt>
      <trkpt lat="37.28989" lon="34.73895">
        <ele>1378.085435</ele>
        <time>2022-01-03T09:08:57.938Z</time>
      </trkpt>
      <trkpt lat="37.28856" lon="34.73709">
        <ele>1388.530287</ele>
        <time>2022-01-03T09:11:08.887Z</time>
      </trkpt>
      <trkpt lat="37.28643" lon="34.73699">
        <ele>1396.27015</ele>
        <time>2022-01-03T09:13:00.892Z</time>
      </trkpt>
      <trkpt lat="37.28516" lon="34.73898">
        <ele>1398.183207</ele>
        <time>2022-01-03T09:14:01.897Z</time>
      </trkpt>
      <trkpt lat="37.28497" lon="34.74214">
        <ele>1374.797282</ele>
        <time>2022-01-03T09:14:45.891Z</time>
      </trkpt>
      <trkpt lat="37.2852" lon="34.74569">
        <ele>1353.328091</ele>
        <time>2022-01-03T09:15:29.894Z</time>
      </trkpt>
      <trkpt lat="37.2856" lon="34.74956">
        <ele>1330.435804</ele>
        <time>2022-01-03T09:16:11.937Z</time>
      </trkpt>
      <trkpt lat="37.28649" lon="34.75353">
        <ele>1304.618514</ele>
        <time>2022-01-03T09:16:54.891Z</time>
      </trkpt>
      <trkpt lat="37.2857" lon="34.75603">
        <ele>1288.310148</ele>
        <time>2022-01-03T09:17:38.897Z</time>
      </trkpt>
      <trkpt lat="37.28278" lon="34.75725">
        <ele>1271.394665</ele>
        <time>2022-01-03T09:18:16.884Z</time>
      </trkpt>
      <trkpt lat="37.2806" lon="34.75788">
        <ele>1254.589017</ele>
        <time>2022-01-03T09:18:39.904Z</time>
      </trkpt>
      <trkpt lat="37.27866" lon="34.76006">
        <ele>1229.461571</ele>
        <time>2022-01-03T09:19:11.895Z</time>
      </trkpt>
      <trkpt lat="37.27569" lon="34.75897">
        <ele>1204.346626</ele>
        <time>2022-01-03T09:19:52.937Z</time>
      </trkpt>
      <trkpt lat="37.27353" lon="34.75889">
        <ele>1188.459203</ele>
        <time>2022-01-03T09:20:14.889Z</time>
      </trkpt>
      <trkpt lat="37.27078" lon="34.75923">
        <ele>1174.579055</ele>
        <time>2022-01-03T09:20:45.900Z</time>
      </trkpt>
      <trkpt lat="37.26873" lon="34.76011">
        <ele>1164.554241</ele>
        <time>2022-01-03T09:21:06.905Z</time>
      </trkpt>
      <trkpt lat="37.26617" lon="34.76059">
        <ele>1148.095026</ele>
        <time>2022-01-03T09:21:28.910Z</time>
      </trkpt>
      <trkpt lat="37.26375" lon="34.76114">
        <ele>1135.449724</ele>
        <time>2022-01-03T09:21:53.887Z</time>
      </trkpt>
      <trkpt lat="37.26146" lon="34.76153">
        <ele>1122.552533</ele>
        <time>2022-01-03T09:22:15.901Z</time>
      </trkpt>
      <trkpt lat="37.25943" lon="34.76359">
        <ele>1109.552215</ele>
        <time>2022-01-03T09:22:48.900Z</time>
      </trkpt>
      <trkpt lat="37.25692" lon="34.76297">
        <ele>1103.998068</ele>
        <time>2022-01-03T09:23:32.895Z</time>
      </trkpt>
      <trkpt lat="37.25578" lon="34.76562">
        <ele>1096.648751</ele>
        <time>2022-01-03T09:24:01.905Z</time>
      </trkpt>
      <trkpt lat="37.25317" lon="34.76835">
        <ele>1078.82148</ele>
        <time>2022-01-03T09:24:45.900Z</time>
      </trkpt>
      <trkpt lat="37.25312" lon="34.77202">
        <ele>1060.164044</ele>
        <time>2022-01-03T09:25:20.911Z</time>
      </trkpt>
      <trkpt lat="37.25295" lon="34.77415">
        <ele>1055.657517</ele>
        <time>2022-01-03T09:26:01.912Z</time>
      </trkpt>
      <trkpt lat="37.25078" lon="34.77432">
        <ele>1068.967947</ele>
        <time>2022-01-03T09:27:48.907Z</time>
      </trkpt>
      <trkpt lat="37.2487" lon="34.77432">
        <ele>1072.454322</ele>
        <time>2022-01-03T09:29:16.933Z</time>
      </trkpt>
      <trkpt lat="37.24798" lon="34.77756">
        <ele>1064.229945</ele>
        <time>2022-01-03T09:30:01.899Z</time>
      </trkpt>
      <trkpt lat="37.24565" lon="34.77823">
        <ele>1055.624139</ele>
        <time>2022-01-03T09:30:45.920Z</time>
      </trkpt>
      <trkpt lat="37.24356" lon="34.78031">
        <ele>1047.844766</ele>
        <time>2022-01-03T09:31:21.917Z</time>
      </trkpt>
      <trkpt lat="37.24184" lon="34.78233">
        <ele>1045.390825</ele>
        <time>2022-01-03T09:32:06.907Z</time>
      </trkpt>
      <trkpt lat="37.24009" lon="34.78321">
        <ele>1052.299463</ele>
        <time>2022-01-03T09:33:27.906Z</time>
      </trkpt>
      <trkpt lat="37.23807" lon="34.78279">
        <ele>1066.58941</ele>
        <time>2022-01-03T09:35:40.909Z</time>
      </trkpt>
      <trkpt lat="37.23581" lon="34.78281">
        <ele>1070.020505</ele>
        <time>2022-01-03T09:37:32.912Z</time>
      </trkpt>
      <trkpt lat="37.2336" lon="34.78431">
        <ele>1067.00125</ele>
        <time>2022-01-03T09:38:18.920Z</time>
      </trkpt>
      <trkpt lat="37.23198" lon="34.7852">
        <ele>1048.067899</ele>
        <time>2022-01-03T09:38:56.919Z</time>
      </trkpt>
      <trkpt lat="37.23067" lon="34.78717">
        <ele>1023.921781</ele>
        <time>2022-01-03T09:39:27.915Z</time>
      </trkpt>
      <trkpt lat="37.22911" lon="34.7901">
        <ele>1000.907469</ele>
        <time>2022-01-03T09:40:00.909Z</time>
      </trkpt>
      <trkpt lat="37.22723" lon="34.78906">
        <ele>990.142688</ele>
        <time>2022-01-03T09:40:53.895Z</time>
      </trkpt>
      <trkpt lat="37.22504" lon="34.7898">
        <ele>989.910605</ele>
        <time>2022-01-03T09:41:52.885Z</time>
      </trkpt>
      <trkpt lat="37.22287" lon="34.79176">
        <ele>970.141171</ele>
        <time>2022-01-03T09:42:21.899Z</time>
      </trkpt>
      <trkpt lat="37.22132" lon="34.79392">
        <ele>964.14117</ele>
        <time>2022-01-03T09:43:20.942Z</time>
      </trkpt>
      <trkpt lat="37.21953" lon="34.79536">
        <ele>983.222841</ele>
        <time>2022-01-03T09:45:38.899Z</time>
      </trkpt>
      <trkpt lat="37.21765" lon="34.79713">
        <ele>984.045365</ele>
        <time>2022-01-03T09:47:06.939Z</time>
      </trkpt>
      <trkpt lat="37.21471" lon="34.79721">
        <ele>970.487703</ele>
        <time>2022-01-03T09:47:43.917Z</time>
      </trkpt>
      <trkpt lat="37.21228" lon="34.79762">
        <ele>948.179528</ele>
        <time>2022-01-03T09:48:07.925Z</time>
      </trkpt>
      <trkpt lat="37.20994" lon="34.7978">
        <ele>926.570953</ele>
        <time>2022-01-03T09:48:29.917Z</time>
      </trkpt>
      <trkpt lat="37.20789" lon="34.79688">
        <ele>909.316951</ele>
        <time>2022-01-03T09:48:50.903Z</time>
      </trkpt>
      <trkpt lat="37.20629" lon="34.79802">
        <ele>893.108468</ele>
        <time>2022-01-03T09:49:14.900Z</time>
      </trkpt>
      <trkpt lat="37.20657" lon="34.80163">
        <ele>872.277998</ele>
        <time>2022-01-03T09:49:47.918Z</time>
      </trkpt>
      <trkpt lat="37.20687" lon="34.80415">
        <ele>857.223336</ele>
        <time>2022-01-03T09:50:08.911Z</time>
      </trkpt>
      <trkpt lat="37.20676" lon="34.8071">
        <ele>841.021318</ele>
        <time>2022-01-03T09:50:33.923Z</time>
      </trkpt>
      <trkpt lat="37.20505" lon="34.80962">
        <ele>828.485444</ele>
        <time>2022-01-03T09:51:02.903Z</time>
      </trkpt>
      <trkpt lat="37.20296" lon="34.81165">
        <ele>805.531794</ele>
        <time>2022-01-03T09:51:36.911Z</time>
      </trkpt>
      <trkpt lat="37.20046" lon="34.81104">
        <ele>781.95607</ele>
        <time>2022-01-03T09:52:06.912Z</time>
      </trkpt>
      <trkpt lat="37.19736" lon="34.80972">
        <ele>753.180952</ele>
        <time>2022-01-03T09:52:48.894Z</time>
      </trkpt>
      <trkpt lat="37.19615" lon="34.8071">
        <ele>739.884624</ele>
        <time>2022-01-03T09:53:19.915Z</time>
      </trkpt>
      <trkpt lat="37.19445" lon="34.80752">
        <ele>724.924187</ele>
        <time>2022-01-03T09:53:49.896Z</time>
      </trkpt>
      <trkpt lat="37.196" lon="34.81097">
        <ele>703.272584</ele>
        <time>2022-01-03T09:54:30.920Z</time>
      </trkpt>
      <trkpt lat="37.19447" lon="34.81076">
        <ele>709.748904</ele>
        <time>2022-01-03T09:55:52.899Z</time>
      </trkpt>
      <trkpt lat="37.19265" lon="34.80937">
        <ele>732.082646</ele>
        <time>2022-01-03T09:58:15.916Z</time>
      </trkpt>
      <trkpt lat="37.19036" lon="34.8089">
        <ele>742.894319</ele>
        <time>2022-01-03T09:59:56.912Z</time>
      </trkpt>
      <trkpt lat="37.18749" lon="34.8096">
        <ele>721.457677</ele>
        <time>2022-01-03T10:00:38.910Z</time>
      </trkpt>
      <trkpt lat="37.18555" lon="34.81146">
        <ele>712.609157</ele>
        <time>2022-01-03T10:01:22.919Z</time>
      </trkpt>
      <trkpt lat="37.18432" lon="34.81393">
        <ele>700.54274</ele>
        <time>2022-01-03T10:02:13.909Z</time>
      </trkpt>
      <trkpt lat="37.18285" lon="34.81507">
        <ele>695.044277</ele>
        <time>2022-01-03T10:20:40.900Z</time>
      </trkpt>
      <trkpt lat="37.18014" lon="34.81611">
        <ele>688.787252</ele>
        <time>2022-01-03T10:21:31.927Z</time>
      </trkpt>
      <trkpt lat="37.17694" lon="34.81534">
        <ele>664.574701</ele>
        <time>2022-01-03T10:22:12.912Z</time>
      </trkpt>
      <trkpt lat="37.17408" lon="34.81525">
        <ele>647.692325</ele>
        <time>2022-01-03T10:22:46.917Z</time>
      </trkpt>
      <trkpt lat="37.17076" lon="34.814">
        <ele>623.986384</ele>
        <time>2022-01-03T10:23:30.912Z</time>
      </trkpt>
      <trkpt lat="37.16848" lon="34.81306">
        <ele>606.413937</ele>
        <time>2022-01-03T10:24:14.902Z</time>
      </trkpt>
      <trkpt lat="37.16592" lon="34.81259">
        <ele>604.591551</ele>
        <time>2022-01-03T10:24:56.906Z</time>
      </trkpt>
      <trkpt lat="37.16362" lon="34.81233">
        <ele>621.777211</ele>
        <time>2022-01-03T10:26:04.898Z</time>
      </trkpt>
      <trkpt lat="37.16135" lon="34.81272">
        <ele>623.203398</ele>
        <time>2022-01-03T10:26:58.928Z</time>
      </trkpt>
      <trkpt lat="37.15876" lon="34.81296">
        <ele>625.894688</ele>
        <time>2022-01-03T10:28:01.911Z</time>
      </trkpt>
      <trkpt lat="37.15633" lon="34.8129">
        <ele>639.894989</ele>
        <time>2022-01-03T10:29:08.914Z</time>
      </trkpt>
      <trkpt lat="37.1542" lon="34.81364">
        <ele>647.595292</ele>
        <time>2022-01-03T10:31:06.954Z</time>
      </trkpt>
      <trkpt lat="37.15204" lon="34.81427">
        <ele>643.659761</ele>
        <time>2022-01-03T10:32:12.897Z</time>
      </trkpt>
      <trkpt lat="37.15017" lon="34.8159">
        <ele>638.33054</ele>
        <time>2022-01-03T10:33:03.933Z</time>
      </trkpt>
      <trkpt lat="37.14805" lon="34.81682">
        <ele>646.463778</ele>
        <time>2022-01-03T10:34:40.905Z</time>
      </trkpt>
      <trkpt lat="37.14645" lon="34.81845">
        <ele>649.962156</ele>
        <time>2022-01-03T10:36:18.912Z</time>
      </trkpt>
      <trkpt lat="37.14557" lon="34.82144">
        <ele>638.669966</ele>
        <time>2022-01-03T10:37:02.917Z</time>
      </trkpt>
      <trkpt lat="37.14467" lon="34.8251">
        <ele>622.047449</ele>
        <time>2022-01-03T10:37:46.903Z</time>
      </trkpt>
      <trkpt lat="37.14519" lon="34.82811">
        <ele>606.648356</ele>
        <time>2022-01-03T10:38:13.899Z</time>
      </trkpt>
      <trkpt lat="37.1457" lon="34.8319">
        <ele>594.538842</ele>
        <time>2022-01-03T10:38:49.934Z</time>
      </trkpt>
      <trkpt lat="37.14476" lon="34.83579">
        <ele>592.098258</ele>
        <time>2022-01-03T10:39:33.931Z</time>
      </trkpt>
      <trkpt lat="37.14273" lon="34.83757">
        <ele>587.187771</ele>
        <time>2022-01-03T10:40:15.913Z</time>
      </trkpt>
      <trkpt lat="37.14039" lon="34.83978">
        <ele>572.702836</ele>
        <time>2022-01-03T10:40:51.915Z</time>
      </trkpt>
      <trkpt lat="37.13853" lon="34.84141">
        <ele>569.9816</ele>
        <time>2022-01-03T10:41:50.915Z</time>
      </trkpt>
      <trkpt lat="37.1369" lon="34.84364">
        <ele>570.0117</ele>
        <time>2022-01-03T10:42:40.917Z</time>
      </trkpt>
      <trkpt lat="37.13502" lon="34.84577">
        <ele>569.824333</ele>
        <time>2022-01-03T10:43:42.910Z</time>
      </trkpt>
      <trkpt lat="37.13472" lon="34.84875">
        <ele>561.291254</ele>
        <time>2022-01-03T10:44:31.909Z</time>
      </trkpt>
      <trkpt lat="37.13488" lon="34.85289">
        <ele>539.059101</ele>
        <time>2022-01-03T10:45:15.912Z</time>
      </trkpt>
      <trkpt lat="37.13364" lon="34.85691">
        <ele>517.80324</ele>
        <time>2022-01-03T10:45:59.932Z</time>
      </trkpt>
      <trkpt lat="37.13235" lon="34.86047">
        <ele>497.705308</ele>
        <time>2022-01-03T10:46:36.908Z</time>
      </trkpt>
      <trkpt lat="37.13158" lon="34.86426">
        <ele>480.752417</ele>
        <time>2022-01-03T10:47:16.916Z</time>
      </trkpt>
      <trkpt lat="37.1307" lon="34.86767">
        <ele>462.240101</ele>
        <time>2022-01-03T10:48:00.916Z</time>
      </trkpt>
      <trkpt lat="37.12841" lon="34.87042">
        <ele>439.726791</ele>
        <time>2022-01-03T10:48:42.918Z</time>
      </trkpt>
      <trkpt lat="37.12653" lon="34.87333">
        <ele>420.408842</ele>
        <time>2022-01-03T10:49:17.919Z</time>
      </trkpt>
      <trkpt lat="37.12548" lon="34.87702">
        <ele>398.535882</ele>
        <time>2022-01-03T10:49:54.924Z</time>
      </trkpt>
      <trkpt lat="37.12384" lon="34.87958">
        <ele>389.324014</ele>
        <time>2022-01-03T10:50:23.937Z</time>
      </trkpt>
      <trkpt lat="37.1226" lon="34.88268">
        <ele>382.793484</ele>
        <time>2022-01-03T10:50:57.903Z</time>
      </trkpt>
      <trkpt lat="37.12144" lon="34.88522">
        <ele>383.303787</ele>
        <time>2022-01-03T10:51:44.911Z</time>
      </trkpt>
      <trkpt lat="37.11992" lon="34.887">
        <ele>382.306199</ele>
        <time>2022-01-03T10:52:26.911Z</time>
      </trkpt>
      <trkpt lat="37.11793" lon="34.88879">
        <ele>374.554277</ele>
        <time>2022-01-03T10:53:11.902Z</time>
      </trkpt>
      <trkpt lat="37.11567" lon="34.89079">
        <ele>367.109792</ele>
        <time>2022-01-03T10:53:59.912Z</time>
      </trkpt>
      <trkpt lat="37.11303" lon="34.89315">
        <ele>350.83419</ele>
        <time>2022-01-03T10:54:40.919Z</time>
      </trkpt>
      <trkpt lat="37.11048" lon="34.89541">
        <ele>339.913846</ele>
        <time>2022-01-03T10:55:24.904Z</time>
      </trkpt>
      <trkpt lat="37.10765" lon="34.89718">
        <ele>328.997388</ele>
        <time>2022-01-03T10:56:08.916Z</time>
      </trkpt>
      <trkpt lat="37.1048" lon="34.89867">
        <ele>312.661304</ele>
        <time>2022-01-03T10:56:47.933Z</time>
      </trkpt>
      <trkpt lat="37.10313" lon="34.90026">
        <ele>302.650143</ele>
        <time>2022-01-03T10:57:09.919Z</time>
      </trkpt>
      <trkpt lat="37.10076" lon="34.90305">
        <ele>295.798271</ele>
        <time>2022-01-03T10:57:53.929Z</time>
      </trkpt>
      <trkpt lat="37.0988" lon="34.90532">
        <ele>293.879276</ele>
        <time>2022-01-03T10:58:37.914Z</time>
      </trkpt>
      <trkpt lat="37.09703" lon="34.90745">
        <ele>293.528929</ele>
        <time>2022-01-03T10:59:29.949Z</time>
      </trkpt>
      <trkpt lat="37.09515" lon="34.90989">
        <ele>287.916363</ele>
        <time>2022-01-03T11:00:13.927Z</time>
      </trkpt>
      <trkpt lat="37.09357" lon="34.91221">
        <ele>284.30224</ele>
        <time>2022-01-03T11:00:56.920Z</time>
      </trkpt>
      <trkpt lat="37.09214" lon="34.91443">
        <ele>286.360965</ele>
        <time>2022-01-03T11:01:52.926Z</time>
      </trkpt>
      <trkpt lat="37.09065" lon="34.91682">
        <ele>288.742729</ele>
        <time>2022-01-03T11:03:00.913Z</time>
      </trkpt>
      <trkpt lat="37.08913" lon="34.91924">
        <ele>284.091361</ele>
        <time>2022-01-03T11:03:51.966Z</time>
      </trkpt>
      <trkpt lat="37.08696" lon="34.92213">
        <ele>265.690982</ele>
        <time>2022-01-03T11:04:37.956Z</time>
      </trkpt>
      <trkpt lat="37.0845" lon="34.9235">
        <ele>267.486926</ele>
        <time>2022-01-03T11:05:43.920Z</time>
      </trkpt>
      <trkpt lat="37.0825" lon="34.92472">
        <ele>274.541275</ele>
        <time>2022-01-03T11:07:00.915Z</time>
      </trkpt>
      <trkpt lat="37.08053" lon="34.92612">
        <ele>283.089712</ele>
        <time>2022-01-03T11:08:42.915Z</time>
      </trkpt>
      <trkpt lat="37.07855" lon="34.92722">
        <ele>292.917841</ele>
        <time>2022-01-03T11:10:56.925Z</time>
      </trkpt>
      <trkpt lat="37.07634" lon="34.92719">
        <ele>292.99666</ele>
        <time>2022-01-03T11:12:19.948Z</time>
      </trkpt>
      <trkpt lat="37.07377" lon="34.92541">
        <ele>286.625822</ele>
        <time>2022-01-03T11:13:04.910Z</time>
      </trkpt>
      <trkpt lat="37.07115" lon="34.92418">
        <ele>274.424415</ele>
        <time>2022-01-03T11:13:35.917Z</time>
      </trkpt>
      <trkpt lat="37.06887" lon="34.92355">
        <ele>256.935044</ele>
        <time>2022-01-03T11:13:57.935Z</time>
      </trkpt>
      <trkpt lat="37.06593" lon="34.92344">
        <ele>250.792034</ele>
        <time>2022-01-03T11:14:39.925Z</time>
      </trkpt>
      <trkpt lat="37.06304" lon="34.92459">
        <ele>239.685207</ele>
        <time>2022-01-03T11:15:21.900Z</time>
      </trkpt>
      <trkpt lat="37.06072" lon="34.92369">
        <ele>233.43433</ele>
        <time>2022-01-03T11:16:17.913Z</time>
      </trkpt>
      <trkpt lat="37.05825" lon="34.92245">
        <ele>228.58764</ele>
        <time>2022-01-03T11:17:01.919Z</time>
      </trkpt>
      <trkpt lat="37.05601" lon="34.92086">
        <ele>224.946821</ele>
        <time>2022-01-03T11:17:48.925Z</time>
      </trkpt>
      <trkpt lat="37.0539" lon="34.9194">
        <ele>226.990975</ele>
        <time>2022-01-03T11:18:51.913Z</time>
      </trkpt>
      <trkpt lat="37.05184" lon="34.91882">
        <ele>239.038479</ele>
        <time>2022-01-03T11:20:44.904Z</time>
      </trkpt>
      <trkpt lat="37.04967" lon="34.9196">
        <ele>244.427969</ele>
        <time>2022-01-03T11:22:13.925Z</time>
      </trkpt>
      <trkpt lat="37.04736" lon="34.92079">
        <ele>236.12631</ele>
        <time>2022-01-03T11:22:41.932Z</time>
      </trkpt>
      <trkpt lat="37.0447" lon="34.92217">
        <ele>224.38584</ele>
        <time>2022-01-03T11:23:12.924Z</time>
      </trkpt>
      <trkpt lat="37.04187" lon="34.9241">
        <ele>212.036421</ele>
        <time>2022-01-03T11:23:52.919Z</time>
      </trkpt>
      <trkpt lat="37.04017" lon="34.92591">
        <ele>202.801805</ele>
        <time>2022-01-03T11:24:13.924Z</time>
      </trkpt>
      <trkpt lat="37.03868" lon="34.92786">
        <ele>193.857939</ele>
        <time>2022-01-03T11:24:35.927Z</time>
      </trkpt>
      <trkpt lat="37.03708" lon="34.93007">
        <ele>179.086875</ele>
        <time>2022-01-03T11:24:57.921Z</time>
      </trkpt>
      <trkpt lat="37.03528" lon="34.93245">
        <ele>165.149892</ele>
        <time>2022-01-03T11:25:18.919Z</time>
      </trkpt>
      <trkpt lat="37.03335" lon="34.93398">
        <ele>170.206325</ele>
        <time>2022-01-03T11:26:32.916Z</time>
      </trkpt>
      <trkpt lat="37.03123" lon="34.93385">
        <ele>179.031193</ele>
        <time>2022-01-03T11:28:03.972Z</time>
      </trkpt>
      <trkpt lat="37.02899" lon="34.93323">
        <ele>177.871116</ele>
        <time>2022-01-03T11:29:13.925Z</time>
      </trkpt>
      <trkpt lat="37.02602" lon="34.93371">
        <ele>169.624956</ele>
        <time>2022-01-03T11:29:58.910Z</time>
      </trkpt>
      <trkpt lat="37.0236" lon="34.93539">
        <ele>158.511417</ele>
        <time>2022-01-03T11:30:29.937Z</time>
      </trkpt>
      <trkpt lat="37.02126" lon="34.93719">
        <ele>145.241168</ele>
        <time>2022-01-03T11:31:01.945Z</time>
      </trkpt>
      <trkpt lat="37.01886" lon="34.93867">
        <ele>140.839554</ele>
        <time>2022-01-03T11:31:45.925Z</time>
      </trkpt>
      <trkpt lat="37.01656" lon="34.93881">
        <ele>139.960326</ele>
        <time>2022-01-03T11:32:27.938Z</time>
      </trkpt>
      <trkpt lat="37.0141" lon="34.93871">
        <ele>133.890899</ele>
        <time>2022-01-03T11:33:11.930Z</time>
      </trkpt>
      <trkpt lat="37.0112" lon="34.93951">
        <ele>118.253087</ele>
        <time>2022-01-03T11:33:56.930Z</time>
      </trkpt>
      <trkpt lat="37.00915" lon="34.94056">
        <ele>108.001655</ele>
        <time>2022-01-03T11:34:17.948Z</time>
      </trkpt>
      <trkpt lat="37.00678" lon="34.94192">
        <ele>108.772765</ele>
        <time>2022-01-03T11:34:57.928Z</time>
      </trkpt>
      <trkpt lat="37.00471" lon="34.943">
        <ele>109.980382</ele>
        <time>2022-01-03T11:35:42.934Z</time>
      </trkpt>
      <trkpt lat="37.00191" lon="34.94448">
        <ele>101.003291</ele>
        <time>2022-01-03T11:36:21.947Z</time>
      </trkpt>
      <trkpt lat="36.99893" lon="34.94571">
        <ele>91.456644</ele>
        <time>2022-01-03T11:36:58.914Z</time>
      </trkpt>
      <trkpt lat="36.9966" lon="34.94603">
        <ele>80.219338</ele>
        <time>2022-01-03T11:37:44.936Z</time>
      </trkpt>
      <trkpt lat="36.99419" lon="34.94636">
        <ele>82.340516</ele>
        <time>2022-01-03T11:38:54.911Z</time>
      </trkpt>
      <trkpt lat="36.99196" lon="34.94736">
        <ele>88.266678</ele>
        <time>2022-01-03T11:39:52.917Z</time>
      </trkpt>
      <trkpt lat="36.99003" lon="34.94908">
        <ele>88.942514</ele>
        <time>2022-01-03T11:40:36.963Z</time>
      </trkpt>
      <trkpt lat="36.98826" lon="34.9511">
        <ele>78.891688</ele>
        <time>2022-01-03T11:41:18.938Z</time>
      </trkpt>
      <trkpt lat="36.98631" lon="34.95319">
        <ele>72.49978</ele>
        <time>2022-01-03T11:42:02.931Z</time>
      </trkpt>
      <trkpt lat="36.98401" lon="34.95431">
        <ele>75.464569</ele>
        <time>2022-01-03T11:42:46.929Z</time>
      </trkpt>
      <trkpt lat="36.9818" lon="34.95428">
        <ele>81.218602</ele>
        <time>2022-01-03T11:43:28.929Z</time>
      </trkpt>
      <trkpt lat="36.97962" lon="34.95326">
        <ele>81.608127</ele>
        <time>2022-01-03T11:44:13.952Z</time>
      </trkpt>
      <trkpt lat="36.97745" lon="34.95205">
        <ele>76.916903</ele>
        <time>2022-01-03T11:44:57.922Z</time>
      </trkpt>
      <trkpt lat="36.97529" lon="34.95078">
        <ele>74.85464</ele>
        <time>2022-01-03T11:45:39.935Z</time>
      </trkpt>
      <trkpt lat="36.97304" lon="34.94951">
        <ele>66.549523</ele>
        <time>2022-01-03T11:46:27.935Z</time>
      </trkpt>
      <trkpt lat="36.97087" lon="34.94855">
        <ele>58.279998</ele>
        <time>2022-01-03T11:47:12.928Z</time>
      </trkpt>
      <trkpt lat="36.96867" lon="34.94761">
        <ele>58.862305</ele>
        <time>2022-01-03T11:47:56.929Z</time>
      </trkpt>
      <trkpt lat="36.96661" lon="34.94633">
        <ele>63.77386</ele>
        <time>2022-01-03T11:48:40.929Z</time>
      </trkpt>
      <trkpt lat="36.96434" lon="34.94468">
        <ele>64.706306</ele>
        <time>2022-01-03T11:49:24.965Z</time>
      </trkpt>
      <trkpt lat="36.9624" lon="34.94313">
        <ele>66.088361</ele>
        <time>2022-01-03T11:50:06.913Z</time>
      </trkpt>
      <trkpt lat="36.9605" lon="34.94166">
        <ele>69.980819</ele>
        <time>2022-01-03T11:50:50.955Z</time>
      </trkpt>
      <trkpt lat="36.95852" lon="34.94025">
        <ele>63.719146</ele>
        <time>2022-01-03T11:51:34.922Z</time>
      </trkpt>
      <trkpt lat="36.95656" lon="34.93878">
        <ele>57.030264</ele>
        <time>2022-01-03T11:52:16.939Z</time>
      </trkpt>
      <trkpt lat="36.95462" lon="34.9373">
        <ele>51.43481</ele>
        <time>2022-01-03T11:53:02.937Z</time>
      </trkpt>
      <trkpt lat="36.95267" lon="34.93582">
        <ele>54.20631</ele>
        <time>2022-01-03T11:53:47.933Z</time>
      </trkpt>
      <trkpt lat="36.95085" lon="34.93445">
        <ele>54.942529</ele>
        <time>2022-01-03T11:54:29.933Z</time>
      </trkpt>
      <trkpt lat="36.94894" lon="34.93296">
        <ele>54.88866</ele>
        <time>2022-01-03T11:55:13.926Z</time>
      </trkpt>
      <trkpt lat="36.94703" lon="34.93159">
        <ele>61.636571</ele>
        <time>2022-01-03T11:55:57.943Z</time>
      </trkpt>
      <trkpt lat="36.94522" lon="34.9302">
        <ele>66.909876</ele>
        <time>2022-01-03T11:56:39.942Z</time>
      </trkpt>
      <trkpt lat="36.94329" lon="34.92877">
        <ele>65.886403</ele>
        <time>2022-01-03T11:57:25.934Z</time>
      </trkpt>
      <trkpt lat="36.94135" lon="34.92735">
        <ele>69.761616</ele>
        <time>2022-01-03T11:58:48.939Z</time>
      </trkpt>
      <trkpt lat="36.93918" lon="34.92575">
        <ele>74.638423</ele>
        <time>2022-01-03T11:59:39.933Z</time>
      </trkpt>
      <trkpt lat="36.9372" lon="34.92365">
        <ele>69.920171</ele>
        <time>2022-01-03T12:00:25.940Z</time>
      </trkpt>
      <trkpt lat="36.93535" lon="34.92169">
        <ele>63.556402</ele>
        <time>2022-01-03T12:01:17.929Z</time>
      </trkpt>
      <trkpt lat="36.93479" lon="34.91894">
        <ele>65.231885</ele>
        <time>2022-01-03T12:02:11.931Z</time>
      </trkpt>
      <trkpt lat="36.93441" lon="34.91619">
        <ele>57.842398</ele>
        <time>2022-01-03T12:02:58.946Z</time>
      </trkpt>
      <trkpt lat="36.93215" lon="34.91615">
        <ele>50.439429</ele>
        <time>2022-01-03T12:03:59.940Z</time>
      </trkpt>
      <trkpt lat="36.93145" lon="34.91379">
        <ele>46.788584</ele>
        <time>2022-01-03T12:04:45.932Z</time>
      </trkpt>
      <trkpt lat="36.93109" lon="34.91114">
        <ele>45.603467</ele>
        <time>2022-01-03T12:05:29.934Z</time>
      </trkpt>
      <trkpt lat="36.93205" lon="34.9083">
        <ele>49.176834</ele>
        <time>2022-01-03T12:06:28.922Z</time>
      </trkpt>
      <trkpt lat="36.93304" lon="34.90567">
        <ele>46.966957</ele>
        <time>2022-01-03T12:07:27.924Z</time>
      </trkpt>
      <trkpt lat="36.93391" lon="34.90287">
        <ele>46.782334</ele>
        <time>2022-01-03T12:08:21.950Z</time>
      </trkpt>
      <trkpt lat="36.93402" lon="34.9001">
        <ele>52.176377</ele>
        <time>2022-01-03T12:09:27.958Z</time>
      </trkpt>
      <trkpt lat="36.93311" lon="34.89872">
        <ele>54.1274</ele>
        <time>2022-01-03T12:17:22.937Z</time>
      </trkpt>
      <trkpt lat="36.93127" lon="34.89887">
        <ele>65.792172</ele>
        <time>2022-01-03T12:20:54.973Z</time>
      </trkpt>
      <trkpt lat="36.929" lon="34.89838">
        <ele>66.569885</ele>
        <time>2022-01-03T12:22:13.928Z</time>
      </trkpt>
      <trkpt lat="36.92685" lon="34.89812">
        <ele>65.691415</ele>
        <time>2022-01-03T12:23:15.931Z</time>
      </trkpt>
      <trkpt lat="36.92435" lon="34.89841">
        <ele>60.429158</ele>
        <time>2022-01-03T12:24:13.928Z</time>
      </trkpt>
      <trkpt lat="36.92221" lon="34.89994">
        <ele>58.68343</ele>
        <time>2022-01-03T12:25:12.937Z</time>
      </trkpt>
      <trkpt lat="36.92007" lon="34.90067">
        <ele>57.988367</ele>
        <time>2022-01-03T12:26:01.915Z</time>
      </trkpt>
      <trkpt lat="36.9196" lon="34.90024">
        <ele>57.988367</ele>
        <time>2022-01-03T12:29:19.810Z</time>
      </trkpt>
    </trkseg>
  </trk>
</gpx>